createdAt,value
2022-08-20T00:01:02.192Z,72.12
2022-08-20T00:06:17.232Z,72.50
2022-08-20T00:11:25.175Z,72.06
2022-08-20T00:16:32.794Z,72.22
2022-08-20T00:21:34.552Z,72.17
2022-08-20T00:26:36.969Z,72.21
2022-08-20T00:31:54.091Z,72.68
2022-08-20T00:36:55.976Z,72.52
2022-08-20T00:41:58.036Z,72.63
2022-08-20T00:47:00.285Z,72.88
2022-08-20T00:52:09.398Z,72.47
2022-08-20T00:57:55.769Z,72.87
2022-08-20T01:02:57.733Z,73.02
2022-08-20T01:07:59.631Z,73.20
2022-08-20T01:13:11.226Z,73.19
2022-08-20T01:18:16.630Z,73.52
2022-08-20T01:23:32.706Z,73.18
2022-08-20T01:28:43.769Z,73.51
2022-08-20T01:33:46.595Z,73.46
2022-08-20T01:38:54.168Z,73.23
2022-08-20T01:43:58.806Z,73.64
2022-08-20T01:49:13.555Z,73.42
2022-08-20T01:54:15.745Z,73.41
2022-08-20T01:59:17.553Z,73.48
2022-08-20T02:04:20.203Z,73.65
2022-08-20T02:09:23.234Z,73.90
2022-08-20T02:14:26.619Z,73.95
2022-08-20T02:19:45.268Z,74.46
2022-08-20T02:24:47.457Z,74.36
2022-08-20T02:29:50.371Z,74.35
2022-08-20T02:34:52.309Z,74.78
2022-08-20T02:39:54.241Z,74.77
2022-08-20T02:44:56.182Z,74.60
2022-08-20T02:49:59.749Z,74.88
2022-08-20T02:55:01.770Z,74.62
2022-08-20T03:00:12.807Z,75.09
2022-08-20T03:05:14.975Z,75.00
2022-08-20T03:10:17.412Z,74.79
2022-08-20T03:15:20.521Z,74.95
2022-08-20T03:20:24.023Z,75.19
2022-08-20T03:25:27.080Z,75.14
2022-08-20T03:30:29.498Z,75.16
2022-08-20T03:35:33.193Z,75.65
2022-08-20T03:40:36.518Z,75.61
2022-08-20T03:45:40.560Z,76.02
2022-08-20T03:50:44.167Z,76.18
2022-08-20T03:55:53.883Z,76.14
2022-08-20T04:00:59.039Z,76.29
2022-08-20T04:06:00.986Z,76.32
2022-08-20T04:11:03.083Z,76.69
2022-08-20T04:16:11.304Z,76.74
2022-08-20T04:21:17.026Z,77.31
2022-08-20T04:26:20.022Z,77.02
2022-08-20T04:31:25.579Z,77.56
2022-08-20T04:36:27.761Z,77.53
2022-08-20T04:41:29.683Z,77.71
2022-08-20T04:46:32.843Z,77.53
2022-08-20T04:51:34.890Z,77.67
2022-08-20T04:56:39.897Z,77.60
2022-08-20T05:01:41.925Z,77.81
2022-08-20T05:06:44.668Z,77.77
2022-08-20T05:11:46.518Z,77.98
2022-08-20T05:16:48.554Z,77.94
2022-08-20T05:21:53.800Z,78.04
2022-08-20T05:26:55.860Z,78.03
2022-08-20T05:31:57.722Z,78.07
2022-08-20T05:37:04.531Z,78.40
2022-08-20T05:42:09.691Z,78.10
2022-08-20T05:47:11.584Z,78.53
2022-08-20T05:52:13.456Z,78.55
2022-08-20T05:57:20.218Z,78.30
2022-08-20T06:02:40.937Z,78.57
2022-08-20T06:07:43.454Z,78.48
2022-08-20T06:12:45.590Z,78.63
2022-08-20T06:17:47.462Z,78.67
2022-08-20T06:23:00.645Z,79.04
2022-08-20T06:28:04.258Z,79.47
2022-08-20T06:33:06.838Z,79.26
2022-08-20T06:38:11.446Z,79.32
2022-08-20T06:43:13.605Z,79.69
2022-08-20T06:48:15.729Z,79.52
2022-08-20T06:53:20.960Z,79.58
2022-08-20T06:58:36.175Z,79.69
2022-08-20T07:03:42.223Z,79.55
2022-08-20T07:08:57.868Z,79.64
2022-08-20T07:13:59.959Z,79.84
2022-08-20T07:19:01.862Z,80.17
2022-08-20T07:24:04.162Z,80.17
2022-08-20T07:29:06.132Z,80.00
2022-08-20T07:34:08.418Z,79.98
2022-08-20T07:39:10.373Z,80.43
2022-08-20T07:44:12.413Z,80.41
2022-08-20T07:49:14.255Z,80.56
2022-08-20T07:54:16.101Z,80.67
2022-08-20T07:59:18.201Z,80.56
2022-08-20T08:04:20.133Z,80.42
2022-08-20T08:09:25.439Z,80.69
2022-08-20T08:14:31.639Z,80.56
2022-08-20T08:19:49.428Z,80.57
2022-08-20T08:24:57.313Z,80.78
2022-08-20T08:30:01.393Z,80.82
2022-08-20T08:35:09.360Z,80.61
2022-08-20T08:40:11.827Z,80.59
2022-08-20T08:45:18.363Z,80.55
2022-08-20T08:50:50.036Z,81.05
2022-08-20T08:55:48.886Z,80.58
2022-08-20T09:00:50.983Z,80.56
2022-08-20T09:06:00.477Z,81.03
2022-08-20T09:11:05.417Z,80.78
2022-08-20T09:16:07.537Z,80.74
2022-08-20T09:21:09.855Z,80.94
2022-08-20T09:26:12.272Z,81.24
2022-08-20T09:31:14.598Z,81.03
2022-08-20T09:36:29.006Z,81.26
2022-08-20T09:41:34.849Z,81.69
2022-08-20T09:46:37.051Z,81.38
2022-08-20T09:51:39.125Z,81.42
2022-08-20T09:56:41.227Z,81.62
2022-08-20T10:01:43.229Z,82.15
2022-08-20T10:06:45.820Z,82.02
2022-08-20T10:11:47.761Z,82.17
2022-08-20T10:16:56.199Z,82.07
2022-08-20T10:22:02.415Z,82.12
2022-08-20T10:27:04.759Z,82.61
2022-08-20T10:32:12.536Z,82.71
2022-08-20T10:37:23.499Z,82.67
2022-08-20T10:42:25.336Z,82.58
2022-08-20T10:47:30.125Z,82.71
2022-08-20T10:52:32.288Z,82.71
2022-08-20T10:57:34.818Z,82.38
2022-08-20T11:02:36.836Z,82.26
2022-08-20T11:07:55.356Z,82.68
2022-08-20T11:13:05.407Z,82.59
2022-08-20T11:18:07.684Z,82.44
2022-08-20T11:23:09.656Z,83.00
2022-08-20T11:28:13.037Z,82.82
2022-08-20T11:33:15.891Z,83.04
2022-08-20T11:38:19.850Z,82.89
2022-08-20T11:43:21.657Z,82.78
2022-08-20T11:48:23.700Z,82.73
2022-08-20T11:53:25.806Z,82.95
2022-08-20T11:58:27.900Z,82.97
2022-08-20T12:03:31.137Z,83.25
2022-08-20T12:08:33.072Z,83.40
2022-08-20T12:13:47.397Z,83.04
2022-08-20T12:18:51.068Z,83.33
2022-08-20T12:23:53.041Z,83.36
2022-08-20T12:28:58.991Z,83.38
2022-08-20T12:34:00.841Z,83.48
2022-08-20T12:39:02.942Z,83.34
2022-08-20T12:44:07.298Z,83.58
2022-08-20T12:49:16.485Z,83.26
2022-08-20T12:54:18.545Z,83.67
2022-08-20T12:59:26.054Z,83.30
2022-08-20T13:04:28.357Z,83.42
2022-08-20T13:09:30.627Z,83.83
2022-08-20T13:14:32.670Z,83.95
2022-08-20T13:19:36.614Z,83.64
2022-08-20T13:24:38.755Z,83.89
2022-08-20T13:29:47.879Z,83.98
2022-08-20T13:34:50.926Z,83.97
2022-08-20T13:39:57.294Z,83.85
2022-08-20T13:44:59.186Z,84.18
2022-08-20T13:50:05.398Z,84.18
2022-08-20T13:55:10.804Z,83.89
2022-08-20T14:00:17.003Z,84.19
2022-08-20T14:05:19.319Z,84.27
2022-08-20T14:10:26.984Z,84.16
2022-08-20T14:15:29.679Z,83.97
2022-08-20T14:20:34.348Z,84.30
2022-08-20T14:25:38.685Z,84.18
2022-08-20T14:30:41.098Z,84.40
2022-08-20T14:35:43.238Z,84.44
2022-08-20T14:40:45.321Z,84.47
2022-08-20T14:45:47.323Z,84.55
2022-08-20T14:50:49.165Z,84.29
2022-08-20T14:55:51.089Z,84.46
2022-08-20T15:00:54.188Z,84.57
2022-08-20T15:05:57.697Z,84.38
2022-08-20T15:11:00.245Z,84.83
2022-08-20T15:16:02.892Z,84.69
2022-08-20T15:21:05.085Z,84.62
2022-08-20T15:26:13.068Z,84.62
2022-08-20T15:31:15.484Z,84.70
2022-08-20T15:36:17.489Z,84.76
2022-08-20T15:41:19.424Z,84.86
2022-08-20T15:46:21.322Z,84.43
2022-08-20T15:51:31.739Z,85.02
2022-08-20T15:57:01.798Z,84.65
2022-08-20T16:02:26.061Z,84.83
2022-08-20T16:07:44.321Z,84.63
2022-08-20T16:12:51.718Z,85.00
2022-08-20T16:18:00.733Z,84.70
2022-08-20T16:23:04.281Z,84.58
2022-08-20T16:28:28.266Z,85.11
2022-08-20T16:33:55.382Z,84.78
2022-08-20T16:39:02.774Z,84.64
2022-08-20T16:44:21.510Z,84.35
2022-08-20T16:49:27.496Z,84.56
2022-08-20T16:54:31.219Z,84.53
2022-08-20T16:59:33.792Z,84.42
2022-08-20T17:04:50.447Z,83.98
2022-08-20T17:10:15.099Z,84.19
2022-08-20T17:15:30.659Z,84.28
2022-08-20T17:20:46.000Z,84.33
2022-08-20T17:26:17.222Z,84.56
2022-08-20T17:31:48.301Z,84.71
2022-08-20T17:37:08.178Z,84.32
2022-08-20T17:42:18.024Z,84.18
2022-08-20T17:47:25.462Z,84.24
2022-08-20T17:52:28.796Z,84.22
2022-08-20T17:57:38.210Z,84.19
2022-08-20T18:02:40.816Z,84.35
2022-08-20T18:07:51.698Z,84.49
2022-08-20T18:13:00.537Z,84.39
2022-08-20T18:18:11.004Z,84.53
2022-08-20T18:23:47.641Z,84.56
2022-08-20T18:28:59.595Z,84.34
2022-08-20T18:34:12.713Z,84.56
2022-08-20T18:39:36.314Z,84.49
2022-08-20T18:44:41.477Z,84.67
2022-08-20T18:49:47.304Z,84.83
2022-08-20T18:54:57.321Z,84.63
2022-08-20T19:00:11.735Z,84.82
2022-08-20T19:05:16.226Z,84.64
2022-08-20T19:10:28.220Z,84.86
2022-08-20T19:15:33.881Z,84.93
2022-08-20T19:20:39.742Z,84.98
2022-08-20T19:25:56.730Z,85.12
2022-08-20T19:31:24.553Z,84.85
2022-08-20T19:36:28.105Z,84.89
2022-08-20T19:41:34.383Z,84.63
2022-08-20T19:46:44.498Z,84.98
2022-08-20T19:52:11.671Z,84.84
2022-08-20T19:57:14.912Z,84.61
2022-08-20T20:02:20.434Z,84.57
2022-08-20T20:07:35.823Z,84.66
2022-08-20T20:12:40.227Z,84.72
2022-08-20T20:17:43.403Z,84.65
2022-08-20T20:22:57.259Z,84.91
2022-08-20T20:28:17.638Z,84.88
2022-08-20T20:33:29.909Z,84.96
2022-08-20T20:38:32.334Z,84.90
2022-08-20T20:43:38.908Z,84.82
2022-08-20T20:48:46.308Z,84.73
2022-08-20T20:53:54.652Z,84.65
2022-08-20T20:59:00.207Z,84.71
2022-08-20T21:04:04.527Z,84.64
2022-08-20T21:09:06.405Z,84.73
2022-08-20T21:14:08.381Z,84.53
2022-08-20T21:19:11.198Z,84.52
2022-08-20T21:24:13.155Z,85.04
2022-08-20T21:29:30.540Z,85.00
2022-08-20T21:34:34.377Z,84.96
2022-08-20T21:39:36.421Z,84.79
2022-08-20T21:44:38.525Z,85.02
2022-08-20T21:49:51.757Z,85.04
2022-08-20T21:54:53.671Z,85.05
2022-08-20T21:59:57.344Z,85.26
2022-08-20T22:04:59.141Z,84.90
2022-08-20T22:10:00.922Z,85.19
2022-08-20T22:15:04.022Z,85.08
2022-08-20T22:20:06.445Z,85.03
2022-08-20T22:25:10.267Z,85.52
2022-08-20T22:30:15.244Z,85.34
2022-08-20T22:35:17.570Z,85.13
2022-08-20T22:40:20.106Z,85.33
2022-08-20T22:45:22.005Z,85.40
2022-08-20T22:50:25.505Z,85.16
2022-08-20T22:55:27.449Z,85.33
2022-08-20T23:00:30.352Z,85.43
2022-08-20T23:05:35.033Z,85.48
2022-08-20T23:10:38.596Z,85.60
2022-08-20T23:15:41.504Z,85.52
2022-08-20T23:20:52.788Z,85.44
2022-08-20T23:25:55.557Z,85.77
2022-08-20T23:30:57.389Z,85.24
2022-08-20T23:35:59.687Z,85.39
2022-08-20T23:41:01.853Z,85.67
2022-08-20T23:46:06.724Z,85.38
2022-08-20T23:51:08.762Z,85.43
2022-08-20T23:56:10.736Z,85.80
